Aegean Wave — VRFI4 — position and weather

sailwx.info

Track history (hours):
 
Tides and Currents Weather Stations Pressure Air Temp Water Temp Dewpoint Dewpoint Depression Visibility Wind Speed Wind Dir Waves Ship Positions

Aegean Wave

Last reported at 2017-Sep-27 21:36 UTC. Time now 2017-Oct-18 02:31 UTC.
Position N 27°53' W 116°06'.
Warning: this ship's position is 20 days out of date.

Length 183 m; draft 10 m.

Type: Tanker. MMSI: 477547300.

Date/timePositionNaut miles runAvg speedWind from/ knotsBaromVisibWave heightAir tempDewpointWater temp
2017-Sep-27 21:36N 27°53' W 116°06'2012.5
2017-Sep-27 20:02N 28°09' W 116°20'012.2
2017-Sep-27 20:00N 28°09' W 116°20'712.5
2017-Sep-27 19:24N 28°15' W 116°25'512.5
2017-Sep-27 18:59N 28°19' W 116°29'5112.3
2017-Sep-27 14:51N 28°58' W 117°06'512.3
2017-Sep-27 14:27N 29°02' W 117°10'612.5
2017-Sep-27 13:58N 29°06' W 117°14'612.4
2017-Sep-27 13:30N 29°11' W 117°18'2512.5
2017-Sep-27 11:31N 29°30' W 117°37'012.0
2017-Sep-27 11:30N 29°30' W 117°37'712.4
2017-Sep-27 10:58N 29°35' W 117°42'612.4
2017-Sep-27 10:31N 29°40' W 117°46'912.4
2017-Sep-27 09:49N 29°46' W 117°52'712.2
2017-Sep-27 09:15N 29°52' W 117°57'312.1
2017-Sep-27 09:00N 29°54' W 117°59'612.0
2017-Sep-27 08:31N 29°58' W 118°03'612.1
2017-Sep-27 08:00N 30°03' W 118°08'612.2
2017-Sep-27 07:31N 30°08' W 118°12'812.3
2017-Sep-27 06:51N 30°14' W 118°18'412.5
2017-Sep-27 06:30N 30°17' W 118°21'612.2
2017-Sep-27 06:00N 30°22' W 118°26'612.3
2017-Sep-27 05:30N 30°27' W 118°31'612.3
2017-Sep-27 05:01N 30°32' W 118°35'612.3
2017-Sep-27 04:30N 30°36' W 118°40'612.3
2017-Sep-27 04:01N 30°41' W 118°44'612.3
2017-Sep-27 03:30N 30°46' W 118°49'612.4
2017-Sep-27 03:00N 30°51' W 118°53'612.3
2017-Sep-27 02:31N 30°55' W 118°58'612.2
2017-Sep-27 02:01N 31°00' W 119°02'612.3
2017-Sep-27 01:31N 31°05' W 119°06'612.7
2017-Sep-27 01:00N 31°11' W 119°10'612.9
2017-Sep-27 00:31N 31°16' W 119°14'712.8
2017-Sep-27 00:00N 31°22' W 119°17'612.9
2017-Sep-26 23:30N 31°28' W 119°21'612.9
2017-Sep-26 23:00N 31°33' W 119°24'612.9
2017-Sep-26 22:31N 31°39' W 119°28'612.7
2017-Sep-26 22:00N 31°45' W 119°32'712.8
2017-Sep-26 21:29N 31°50' W 119°36'612.9
2017-Sep-26 21:00N 31°56' W 119°39'613.1
2017-Sep-26 20:31N 32°01' W 119°43'713.1
2017-Sep-26 20:01N 32°07' W 119°47'612.9
2017-Sep-26 19:30N 32°13' W 119°51'612.7
2017-Sep-26 19:01N 32°18' W 119°54'612.8
2017-Sep-26 18:31N 32°24' W 119°58'612.6
2017-Sep-26 18:01N 32°29' W 120°02'1612.6
2017-Sep-26 16:43N 32°44' W 120°11'512.7
2017-Sep-26 16:20N 32°48' W 120°14'412.5
2017-Sep-26 16:00N 32°51' W 120°16'612.8
2017-Sep-26 15:31N 32°57' W 120°20'612.7
2017-Sep-26 15:00N 33°02' W 120°24'612.5
2017-Sep-26 14:31N 33°08' W 120°28'612.4
2017-Sep-26 14:00N 33°13' W 120°31'612.7
2017-Sep-26 13:31N 33°19' W 120°35'612.8
2017-Sep-26 13:00N 33°24' W 120°39'612.7
2017-Sep-26 12:30N 33°30' W 120°42'612.5
2017-Sep-26 12:00N 33°36' W 120°45'612.3
2017-Sep-26 11:30N 33°42' W 120°48'612.3
2017-Sep-26 11:01N 33°47' W 120°51'712.7
2017-Sep-26 10:29N 33°53' W 120°55'612.9
2017-Sep-26 10:00N 33°59' W 120°58'612.6
2017-Sep-26 09:30N 34°04' W 121°01'612.7
2017-Sep-26 09:00N 34°10' W 121°04'612.5
2017-Sep-26 08:30N 34°16' W 121°08'612.3
2017-Sep-26 08:00N 34°21' W 121°11'611.8
2017-Sep-26 07:30N 34°26' W 121°15'612.3
2017-Sep-26 07:00N 34°31' W 121°19'612.2
2017-Sep-26 06:31N 34°37' W 121°22'612.5
2017-Sep-26 06:01N 34°43' W 121°24'612.4
2017-Sep-26 05:30N 34°48' W 121°27'612.7
2017-Sep-26 05:01N 34°54' W 121°30'612.7
2017-Sep-26 04:31N 35°00' W 121°33'612.6
2017-Sep-26 04:01N 35°06' W 121°37'612.6
2017-Sep-26 03:30N 35°11' W 121°40'612.8
2017-Sep-26 03:00N 35°17' W 121°43'713.4
2017-Sep-26 02:31N 35°23' W 121°47'1112.8
2017-Sep-26 01:41N 35°33' W 121°52'212.5
2017-Sep-26 01:31N 35°35' W 121°54'612.7
2017-Sep-26 01:00N 35°41' W 121°57'1112.6
2017-Sep-26 00:10N 35°50' W 122°03'212.7
2017-Sep-26 00:00N 35°52' W 122°04'612.9
2017-Sep-25 23:31N 35°58' W 122°07'612.8
2017-Sep-25 23:00N 36°03' W 122°11'713.1
2017-Sep-25 22:30N 36°09' W 122°14'713.2
2017-Sep-25 22:00N 36°15' W 122°17'612.7
2017-Sep-25 21:30N 36°21' W 122°21'612.6
2017-Sep-25 21:00N 36°27' W 122°23'612.7
2017-Sep-25 20:30N 36°33' W 122°26'612.3
2017-Sep-25 20:01N 36°39' W 122°29'612.6
2017-Sep-25 19:30N 36°45' W 122°32'612.6
2017-Sep-25 19:01N 36°51' W 122°34'612.6
2017-Sep-25 18:30N 36°56' W 122°37'612.6
2017-Sep-25 18:00N 37°02' W 122°40'612.5
2017-Sep-25 17:30N 37°08' W 122°43'612.5
2017-Sep-25 17:00N 37°14' W 122°44'612.8
2017-Sep-25 16:30N 37°21' W 122°43'612.7
2017-Sep-25 16:01N 37°27' W 122°43'612.4
2017-Sep-25 15:31N 37°33' W 122°43'612.2
2017-Sep-25 15:01N 37°39' W 122°43'611.2
2017-Sep-25 14:31N 37°45' W 122°41'611.5
2017-Sep-25 14:00N 37°47' W 122°34'612.7
2017-Sep-25 13:30N 37°50' W 122°27'4 7.3
2017-Sep-25 13:01N 37°54' W 122°26'5 9.8
2017-Sep-25 12:30N 37°59' W 122°26'5 9.6
2017-Sep-25 12:00N 38°02' W 122°22'4 8.4
2017-Sep-25 11:31N 38°04' W 122°17'4 8.3
2017-Sep-25 11:00N 38°03' W 122°12'3 6.3
2017-Sep-25 10:30N 38°02' W 122°08'0 0.7
2017-Sep-25 10:00N 38°02' W 122°08'0 0.0
2017-Sep-25 09:30N 38°02' W 122°08'0 0.0
2017-Sep-25 09:00N 38°02' W 122°08'0 0.0
2017-Sep-24 10:44N 38°02' W 122°08'0 0.0
2017-Sep-24 10:30N 38°02' W 122°08'1 2.2
2017-Sep-24 10:00N 38°02' W 122°09'4 8.8
2017-Sep-24 09:31N 38°04' W 122°14'5 9.7
2017-Sep-24 09:00N 38°03' W 122°20'5 9.5
2017-Sep-24 08:31N 38°00' W 122°25'5 9.5
2017-Sep-24 08:01N 37°56' W 122°27'5 9.3
2017-Sep-24 07:31N 37°51' W 122°25'3 6.6
2017-Sep-24 07:01N 37°49' W 122°28'612.3
2017-Sep-24 06:31N 37°47' W 122°35'510.2
2017-Sep-24 06:01N 37°46' W 122°41'4 7.5
2017-Sep-24 05:30N 37°47' W 122°46'4 7.8
2017-Sep-24 05:00N 37°48' W 122°51'5 9.2
2017-Sep-24 04:31N 37°50' W 122°56'611.0
2017-Sep-24 04:01N 37°53' W 123°02'612.2
2017-Sep-24 03:31N 37°56' W 123°09'612.3
2017-Sep-24 03:00N 38°00' W 123°14'612.7
2017-Sep-24 02:30N 38°05' W 123°19'612.5
2017-Sep-24 02:00N 38°10' W 123°24'612.4
2017-Sep-24 01:31N 38°15' W 123°28'612.2
2017-Sep-24 01:01N 38°21' W 123°33'612.7
2017-Sep-24 00:31N 38°26' W 123°37'2 4.6
2017-Sep-24 00:01N 38°28' W 123°38'4 7.3
2017-Sep-23 23:30N 38°31' W 123°40'612.7
2017-Sep-23 23:00N 38°37' W 123°44'612.8
2017-Sep-23 22:31N 38°42' W 123°49'612.7
2017-Sep-23 22:00N 38°48' W 123°52'1912.7
2017-Sep-23 20:29N 39°06' W 124°00'612.9
2017-Sep-23 20:00N 39°12' W 124°03'52412.0
2017-Sep-22 00:26N 47°53' W 125°28'512.3
2017-Sep-22 00:00N 47°58' W 125°28'611.6
2017-Sep-21 23:30N 48°03' W 125°23'911.9
2017-Sep-21 22:46N 48°11' W 125°17'411.6
2017-Sep-21 22:27N 48°14' W 125°14'612.3
2017-Sep-21 22:00N 48°19' W 125°11'612.1
2017-Sep-21 21:30N 48°25' W 125°07'611.4
2017-Sep-21 21:00N 48°30' W 125°03'510.0
2017-Sep-21 20:30N 48°32' W 124°56'611.2
2017-Sep-21 20:00N 48°32' W 124°48'611.2
2017-Sep-21 19:30N 48°30' W 124°40'611.8
2017-Sep-21 19:00N 48°27' W 124°32'612.4
2017-Sep-21 18:30N 48°25' W 124°23'612.7
2017-Sep-21 18:00N 48°23' W 124°14'713.3
2017-Sep-21 17:30N 48°20' W 124°05'713.1
2017-Sep-21 17:00N 48°18' W 123°56'713.2
2017-Sep-21 16:30N 48°17' W 123°46'714.1
2017-Sep-21 15:59N 48°15' W 123°35'612.8
2017-Sep-21 15:30N 48°13' W 123°26'510.2
2017-Sep-21 15:00N 48°09' W 123°22'2 3.4
2017-Sep-21 14:30N 48°08' W 123°25'0 0.4
2017-Sep-21 14:00N 48°08' W 123°25'0 0.1
2017-Sep-21 13:30N 48°08' W 123°25'0 0.0
2017-Sep-21 13:00N 48°08' W 123°25'0 0.0
2017-Sep-21 12:30N 48°08' W 123°25'0 0.0
2017-Sep-21 11:54N 48°08' W 123°25'0 0.1
2017-Sep-21 11:30N 48°08' W 123°25'0 0.1
2017-Sep-21 10:48N 48°08' W 123°25'0 0.0
2017-Sep-21 10:27N 48°08' W 123°25'0 0.0
2017-Sep-21 10:00N 48°08' W 123°25'0 0.1
2017-Sep-21 09:27N 48°08' W 123°25'0 0.0
2017-Sep-21 09:00N 48°08' W 123°25'0 0.1
2017-Sep-21 08:30N 48°08' W 123°25'0 0.1
2017-Sep-21 08:00N 48°08' W 123°25'1 1.7
2017-Sep-21 07:22N 48°08' W 123°23'3 8.8
2017-Sep-21 07:00N 48°09' W 123°19'713.6
2017-Sep-21 06:30N 48°14' W 123°12'713.4
2017-Sep-21 06:00N 48°18' W 123°04'612.4
2017-Sep-21 05:30N 48°21' W 122°56'713.5
2017-Sep-21 05:00N 48°25' W 122°47'510.9
2017-Sep-21 04:30N 48°30' W 122°44'611.9
2017-Sep-21 04:01N 48°36' W 122°45'5 9.5
2017-Sep-21 03:31N 48°41' W 122°43'5 9.4
2017-Sep-21 03:00N 48°45' W 122°46'5 9.5
2017-Sep-21 02:30N 48°50' W 122°44'0 0.5
2017-Sep-21 02:00N 48°50' W 122°43'0 0.0
2017-Sep-20 03:39N 48°50' W 122°43'0 0.0
2017-Sep-20 03:30N 48°50' W 122°43'0 0.8
2017-Sep-20 03:00N 48°49' W 122°43'3 6.0
2017-Sep-20 02:30N 48°46' W 122°45'611.4
2017-Sep-20 02:00N 48°41' W 122°43'510.3
2017-Sep-20 01:30N 48°37' W 122°37'3 5.9
2017-Sep-20 00:59N 48°36' W 122°33'0 0.2
2017-Sep-20 00:15N 48°36' W 122°33'0 0.1
2017-Sep-19 23:39N 48°36' W 122°33'0 0.0
2017-Sep-19 23:24N 48°36' W 122°33'0 0.0
2017-Sep-19 23:00N 48°36' W 122°33'0 0.1
2017-Sep-19 22:21N 48°36' W 122°33'0 0.0
2017-Sep-19 22:00N 48°36' W 122°33'0 0.0
2017-Sep-19 21:00N 48°36' W 122°33'0 0.1
2017-Sep-19 20:30N 48°36' W 122°33'0 0.0
2017-Sep-19 20:00N 48°36' W 122°33'0 0.1
2017-Sep-19 19:30N 48°36' W 122°33'0 0.0
2017-Sep-19 18:54N 48°36' W 122°33'0 0.1
2017-Sep-19 18:24N 48°36' W 122°33'0 0.0
2017-Sep-19 17:36N 48°36' W 122°33'0 0.1
2017-Sep-19 17:30N 48°36' W 122°33'0 0.0
2017-Sep-19 14:48N 48°36' W 122°33'0 0.1
2017-Sep-19 14:30N 48°36' W 122°33'0 0.0
2017-Sep-19 13:57N 48°36' W 122°33'0 0.0
2017-Sep-19 13:15N 48°36' W 122°33'0 0.0
2017-Sep-19 13:00N 48°36' W 122°33'0 0.0
2017-Sep-19 12:24N 48°36' W 122°33'0 0.0
2017-Sep-19 11:54N 48°36' W 122°33'0 0.0
2017-Sep-19 11:24N 48°36' W 122°33'0 0.0
2017-Sep-19 11:00N 48°36' W 122°33'0 0.0
2017-Sep-19 09:42N 48°36' W 122°33'0 0.0
2017-Sep-19 09:09N 48°36' W 122°33'0 0.0
2017-Sep-19 09:00N 48°36' W 122°33'0 0.0
2017-Sep-19 08:30N 48°36' W 122°33'0 0.0
2017-Sep-19 07:03N 48°36' W 122°33'0 0.0
2017-Sep-19 06:51N 48°36' W 122°33'0 0.1
2017-Sep-19 06:24N 48°36' W 122°33'0 0.0
2017-Sep-19 05:54N 48°36' W 122°33'0 0.0
2017-Sep-19 05:30N 48°36' W 122°33'0 0.0
2017-Sep-19 03:42N 48°36' W 122°33'0 0.0
2017-Sep-19 03:30N 48°36' W 122°33'0 0.0
2017-Sep-18 20:21N 48°36' W 122°32'0 0.0
2017-Sep-18 19:48N 48°36' W 122°32'0 0.1
2017-Sep-18 19:15N 48°36' W 122°33'0 0.0
2017-Sep-18 14:00N 48°36' W 122°33'0 0.0
2017-Sep-18 12:54N 48°36' W 122°33'0 0.0
2017-Sep-18 10:24N 48°36' W 122°33'0 0.3
2017-Sep-18 09:59N 48°36' W 122°33'2 5.1
2017-Sep-18 09:30N 48°37' W 122°36'5 9.2
2017-Sep-18 09:00N 48°33' W 122°40'714.1
2017-Sep-18 08:29N 48°27' W 122°46'714.4
2017-Sep-18 08:00N 48°22' W 122°53'815.4
2017-Sep-18 07:30N 48°18' W 123°03'714.3
2017-Sep-18 06:59N 48°14' W 123°12'714.1
2017-Sep-18 06:30N 48°11' W 123°21'5 9.6
2017-Sep-18 06:00N 48°11' W 123°28'612.2
2017-Sep-18 05:30N 48°13' W 123°37'612.5
2017-Sep-18 05:00N 48°13' W 123°46'713.5
2017-Sep-18 04:30N 48°14' W 123°56'713.8
2017-Sep-18 04:00N 48°17' W 124°05'713.7
2017-Sep-18 03:30N 48°19' W 124°15'713.5
2017-Sep-18 03:00N 48°22' W 124°24'713.6
2017-Sep-18 02:31N 48°25' W 124°33'713.6
2017-Sep-18 02:00N 48°28' W 124°42'713.8
2017-Sep-18 01:30N 48°29' W 124°53'612.4
2017-Sep-18 01:00N 48°26' W 125°02'713.8
2017-Sep-18 00:30N 48°20' W 125°06'713.6
2017-Sep-18 00:00N 48°14' W 125°12'713.7
2017-Sep-17 23:29N 48°09' W 125°19'713.7
2017-Sep-17 22:57N 48°03' W 125°26'  
Track history (hours):
 
Tides and Currents Weather Stations Pressure Air Temp Water Temp Dewpoint Dewpoint Depression Visibility Wind Speed Wind Dir Waves Ship Positions

Aegean Wave

Last reported at 2017-Sep-27 21:36 UTC. Time now 2017-Oct-18 02:31 UTC.
Position N 27°53' W 116°06'.
Warning: this ship's position is 20 days out of date.

Length 183 m; draft 10 m.

Type: Tanker. MMSI: 477547300.

Date/timePositionNaut miles runAvg speedWind from/ knotsBaromVisibWave heightAir tempDewpointWater temp
2017-Sep-27 21:36N 27°53' W 116°06'2012.5
2017-Sep-27 20:02N 28°09' W 116°20'012.2
2017-Sep-27 20:00N 28°09' W 116°20'712.5
2017-Sep-27 19:24N 28°15' W 116°25'512.5
2017-Sep-27 18:59N 28°19' W 116°29'5112.3
2017-Sep-27 14:51N 28°58' W 117°06'512.3
2017-Sep-27 14:27N 29°02' W 117°10'612.5
2017-Sep-27 13:58N 29°06' W 117°14'612.4
2017-Sep-27 13:30N 29°11' W 117°18'2512.5
2017-Sep-27 11:31N 29°30' W 117°37'012.0
2017-Sep-27 11:30N 29°30' W 117°37'712.4
2017-Sep-27 10:58N 29°35' W 117°42'612.4
2017-Sep-27 10:31N 29°40' W 117°46'912.4
2017-Sep-27 09:49N 29°46' W 117°52'712.2
2017-Sep-27 09:15N 29°52' W 117°57'312.1
2017-Sep-27 09:00N 29°54' W 117°59'612.0
2017-Sep-27 08:31N 29°58' W 118°03'612.1
2017-Sep-27 08:00N 30°03' W 118°08'612.2
2017-Sep-27 07:31N 30°08' W 118°12'812.3
2017-Sep-27 06:51N 30°14' W 118°18'412.5
2017-Sep-27 06:30N 30°17' W 118°21'612.2
2017-Sep-27 06:00N 30°22' W 118°26'612.3
2017-Sep-27 05:30N 30°27' W 118°31'612.3
2017-Sep-27 05:01N 30°32' W 118°35'612.3
2017-Sep-27 04:30N 30°36' W 118°40'612.3
2017-Sep-27 04:01N 30°41' W 118°44'612.3
2017-Sep-27 03:30N 30°46' W 118°49'612.4
2017-Sep-27 03:00N 30°51' W 118°53'612.3
2017-Sep-27 02:31N 30°55' W 118°58'612.2
2017-Sep-27 02:01N 31°00' W 119°02'612.3
2017-Sep-27 01:31N 31°05' W 119°06'612.7
2017-Sep-27 01:00N 31°11' W 119°10'612.9
2017-Sep-27 00:31N 31°16' W 119°14'712.8
2017-Sep-27 00:00N 31°22' W 119°17'612.9
2017-Sep-26 23:30N 31°28' W 119°21'612.9
2017-Sep-26 23:00N 31°33' W 119°24'612.9
2017-Sep-26 22:31N 31°39' W 119°28'612.7
2017-Sep-26 22:00N 31°45' W 119°32'712.8
2017-Sep-26 21:29N 31°50' W 119°36'612.9
2017-Sep-26 21:00N 31°56' W 119°39'613.1
2017-Sep-26 20:31N 32°01' W 119°43'713.1
2017-Sep-26 20:01N 32°07' W 119°47'612.9
2017-Sep-26 19:30N 32°13' W 119°51'612.7
2017-Sep-26 19:01N 32°18' W 119°54'612.8
2017-Sep-26 18:31N 32°24' W 119°58'612.6
2017-Sep-26 18:01N 32°29' W 120°02'1612.6
2017-Sep-26 16:43N 32°44' W 120°11'512.7
2017-Sep-26 16:20N 32°48' W 120°14'412.5
2017-Sep-26 16:00N 32°51' W 120°16'612.8
2017-Sep-26 15:31N 32°57' W 120°20'612.7
2017-Sep-26 15:00N 33°02' W 120°24'612.5
2017-Sep-26 14:31N 33°08' W 120°28'612.4
2017-Sep-26 14:00N 33°13' W 120°31'612.7
2017-Sep-26 13:31N 33°19' W 120°35'612.8
2017-Sep-26 13:00N 33°24' W 120°39'612.7
2017-Sep-26 12:30N 33°30' W 120°42'612.5
2017-Sep-26 12:00N 33°36' W 120°45'612.3
2017-Sep-26 11:30N 33°42' W 120°48'612.3
2017-Sep-26 11:01N 33°47' W 120°51'712.7
2017-Sep-26 10:29N 33°53' W 120°55'612.9
2017-Sep-26 10:00N 33°59' W 120°58'612.6
2017-Sep-26 09:30N 34°04' W 121°01'612.7
2017-Sep-26 09:00N 34°10' W 121°04'612.5
2017-Sep-26 08:30N 34°16' W 121°08'612.3
2017-Sep-26 08:00N 34°21' W 121°11'611.8
2017-Sep-26 07:30N 34°26' W 121°15'612.3
2017-Sep-26 07:00N 34°31' W 121°19'612.2
2017-Sep-26 06:31N 34°37' W 121°22'612.5
2017-Sep-26 06:01N 34°43' W 121°24'612.4
2017-Sep-26 05:30N 34°48' W 121°27'612.7
2017-Sep-26 05:01N 34°54' W 121°30'612.7
2017-Sep-26 04:31N 35°00' W 121°33'612.6
2017-Sep-26 04:01N 35°06' W 121°37'612.6
2017-Sep-26 03:30N 35°11' W 121°40'612.8
2017-Sep-26 03:00N 35°17' W 121°43'713.4
2017-Sep-26 02:31N 35°23' W 121°47'1112.8
2017-Sep-26 01:41N 35°33' W 121°52'212.5
2017-Sep-26 01:31N 35°35' W 121°54'612.7
2017-Sep-26 01:00N 35°41' W 121°57'1112.6
2017-Sep-26 00:10N 35°50' W 122°03'212.7
2017-Sep-26 00:00N 35°52' W 122°04'612.9
2017-Sep-25 23:31N 35°58' W 122°07'612.8
2017-Sep-25 23:00N 36°03' W 122°11'713.1
2017-Sep-25 22:30N 36°09' W 122°14'713.2
2017-Sep-25 22:00N 36°15' W 122°17'612.7
2017-Sep-25 21:30N 36°21' W 122°21'612.6
2017-Sep-25 21:00N 36°27' W 122°23'612.7
2017-Sep-25 20:30N 36°33' W 122°26'612.3
2017-Sep-25 20:01N 36°39' W 122°29'612.6
2017-Sep-25 19:30N 36°45' W 122°32'612.6
2017-Sep-25 19:01N 36°51' W 122°34'612.6
2017-Sep-25 18:30N 36°56' W 122°37'612.6
2017-Sep-25 18:00N 37°02' W 122°40'612.5
2017-Sep-25 17:30N 37°08' W 122°43'612.5
2017-Sep-25 17:00N 37°14' W 122°44'612.8
2017-Sep-25 16:30N 37°21' W 122°43'612.7
2017-Sep-25 16:01N 37°27' W 122°43'612.4
2017-Sep-25 15:31N 37°33' W 122°43'612.2
2017-Sep-25 15:01N 37°39' W 122°43'611.2
2017-Sep-25 14:31N 37°45' W 122°41'611.5
2017-Sep-25 14:00N 37°47' W 122°34'612.7
2017-Sep-25 13:30N 37°50' W 122°27'4 7.3
2017-Sep-25 13:01N 37°54' W 122°26'5 9.8
2017-Sep-25 12:30N 37°59' W 122°26'5 9.6
2017-Sep-25 12:00N 38°02' W 122°22'4 8.4
2017-Sep-25 11:31N 38°04' W 122°17'4 8.3
2017-Sep-25 11:00N 38°03' W 122°12'3 6.3
2017-Sep-25 10:30N 38°02' W 122°08'0 0.7
2017-Sep-25 10:00N 38°02' W 122°08'0 0.0
2017-Sep-25 09:30N 38°02' W 122°08'0 0.0
2017-Sep-25 09:00N 38°02' W 122°08'0 0.0
2017-Sep-24 10:44N 38°02' W 122°08'0 0.0
2017-Sep-24 10:30N 38°02' W 122°08'1 2.2
2017-Sep-24 10:00N 38°02' W 122°09'4 8.8
2017-Sep-24 09:31N 38°04' W 122°14'5 9.7
2017-Sep-24 09:00N 38°03' W 122°20'5 9.5
2017-Sep-24 08:31N 38°00' W 122°25'5 9.5
2017-Sep-24 08:01N 37°56' W 122°27'5 9.3
2017-Sep-24 07:31N 37°51' W 122°25'3 6.6
2017-Sep-24 07:01N 37°49' W 122°28'612.3
2017-Sep-24 06:31N 37°47' W 122°35'510.2
2017-Sep-24 06:01N 37°46' W 122°41'4 7.5
2017-Sep-24 05:30N 37°47' W 122°46'4 7.8
2017-Sep-24 05:00N 37°48' W 122°51'5 9.2
2017-Sep-24 04:31N 37°50' W 122°56'611.0
2017-Sep-24 04:01N 37°53' W 123°02'612.2
2017-Sep-24 03:31N 37°56' W 123°09'612.3
2017-Sep-24 03:00N 38°00' W 123°14'612.7
2017-Sep-24 02:30N 38°05' W 123°19'612.5
2017-Sep-24 02:00N 38°10' W 123°24'612.4
2017-Sep-24 01:31N 38°15' W 123°28'612.2
2017-Sep-24 01:01N 38°21' W 123°33'612.7
2017-Sep-24 00:31N 38°26' W 123°37'2 4.6
2017-Sep-24 00:01N 38°28' W 123°38'4 7.3
2017-Sep-23 23:30N 38°31' W 123°40'612.7
2017-Sep-23 23:00N 38°37' W 123°44'612.8
2017-Sep-23 22:31N 38°42' W 123°49'612.7
2017-Sep-23 22:00N 38°48' W 123°52'1912.7
2017-Sep-23 20:29N 39°06' W 124°00'612.9
2017-Sep-23 20:00N 39°12' W 124°03'52412.0
2017-Sep-22 00:26N 47°53' W 125°28'512.3
2017-Sep-22 00:00N 47°58' W 125°28'611.6
2017-Sep-21 23:30N 48°03' W 125°23'911.9
2017-Sep-21 22:46N 48°11' W 125°17'411.6
2017-Sep-21 22:27N 48°14' W 125°14'612.3
2017-Sep-21 22:00N 48°19' W 125°11'612.1
2017-Sep-21 21:30N 48°25' W 125°07'611.4
2017-Sep-21 21:00N 48°30' W 125°03'510.0
2017-Sep-21 20:30N 48°32' W 124°56'611.2
2017-Sep-21 20:00N 48°32' W 124°48'611.2
2017-Sep-21 19:30N 48°30' W 124°40'611.8
2017-Sep-21 19:00N 48°27' W 124°32'612.4
2017-Sep-21 18:30N 48°25' W 124°23'612.7
2017-Sep-21 18:00N 48°23' W 124°14'713.3
2017-Sep-21 17:30N 48°20' W 124°05'713.1
2017-Sep-21 17:00N 48°18' W 123°56'713.2
2017-Sep-21 16:30N 48°17' W 123°46'714.1
2017-Sep-21 15:59N 48°15' W 123°35'612.8
2017-Sep-21 15:30N 48°13' W 123°26'510.2
2017-Sep-21 15:00N 48°09' W 123°22'2 3.4
2017-Sep-21 14:30N 48°08' W 123°25'0 0.4
2017-Sep-21 14:00N 48°08' W 123°25'0 0.1
2017-Sep-21 13:30N 48°08' W 123°25'0 0.0
2017-Sep-21 13:00N 48°08' W 123°25'0 0.0
2017-Sep-21 12:30N 48°08' W 123°25'0 0.0
2017-Sep-21 11:54N 48°08' W 123°25'0 0.1
2017-Sep-21 11:30N 48°08' W 123°25'0 0.1
2017-Sep-21 10:48N 48°08' W 123°25'0 0.0
2017-Sep-21 10:27N 48°08' W 123°25'0 0.0
2017-Sep-21 10:00N 48°08' W 123°25'0 0.1
2017-Sep-21 09:27N 48°08' W 123°25'0 0.0
2017-Sep-21 09:00N 48°08' W 123°25'0 0.1
2017-Sep-21 08:30N 48°08' W 123°25'0 0.1
2017-Sep-21 08:00N 48°08' W 123°25'1 1.7
2017-Sep-21 07:22N 48°08' W 123°23'3 8.8
2017-Sep-21 07:00N 48°09' W 123°19'713.6
2017-Sep-21 06:30N 48°14' W 123°12'713.4
2017-Sep-21 06:00N 48°18' W 123°04'612.4
2017-Sep-21 05:30N 48°21' W 122°56'713.5
2017-Sep-21 05:00N 48°25' W 122°47'510.9
2017-Sep-21 04:30N 48°30' W 122°44'611.9
2017-Sep-21 04:01N 48°36' W 122°45'5 9.5
2017-Sep-21 03:31N 48°41' W 122°43'5 9.4
2017-Sep-21 03:00N 48°45' W 122°46'5 9.5
2017-Sep-21 02:30N 48°50' W 122°44'0 0.5
2017-Sep-21 02:00N 48°50' W 122°43'0 0.0
2017-Sep-20 03:39N 48°50' W 122°43'0 0.0
2017-Sep-20 03:30N 48°50' W 122°43'0 0.8
2017-Sep-20 03:00N 48°49' W 122°43'3 6.0
2017-Sep-20 02:30N 48°46' W 122°45'611.4
2017-Sep-20 02:00N 48°41' W 122°43'510.3
2017-Sep-20 01:30N 48°37' W 122°37'3 5.9
2017-Sep-20 00:59N 48°36' W 122°33'0 0.2
2017-Sep-20 00:15N 48°36' W 122°33'0 0.1
2017-Sep-19 23:39N 48°36' W 122°33'0 0.0
2017-Sep-19 23:24N 48°36' W 122°33'0 0.0
2017-Sep-19 23:00N 48°36' W 122°33'0 0.1
2017-Sep-19 22:21N 48°36' W 122°33'0 0.0
2017-Sep-19 22:00N 48°36' W 122°33'0 0.0
2017-Sep-19 21:00N 48°36' W 122°33'0 0.1
2017-Sep-19 20:30N 48°36' W 122°33'0 0.0
2017-Sep-19 20:00N 48°36' W 122°33'0 0.1
2017-Sep-19 19:30N 48°36' W 122°33'0 0.0
2017-Sep-19 18:54N 48°36' W 122°33'0 0.1
2017-Sep-19 18:24N 48°36' W 122°33'0 0.0
2017-Sep-19 17:36N 48°36' W 122°33'0 0.1
2017-Sep-19 17:30N 48°36' W 122°33'0 0.0
2017-Sep-19 14:48N 48°36' W 122°33'0 0.1
2017-Sep-19 14:30N 48°36' W 122°33'0 0.0
2017-Sep-19 13:57N 48°36' W 122°33'0 0.0
2017-Sep-19 13:15N 48°36' W 122°33'0 0.0
2017-Sep-19 13:00N 48°36' W 122°33'0 0.0
2017-Sep-19 12:24N 48°36' W 122°33'0 0.0
2017-Sep-19 11:54N 48°36' W 122°33'0 0.0
2017-Sep-19 11:24N 48°36' W 122°33'0 0.0
2017-Sep-19 11:00N 48°36' W 122°33'0 0.0
2017-Sep-19 09:42N 48°36' W 122°33'0 0.0
2017-Sep-19 09:09N 48°36' W 122°33'0 0.0
2017-Sep-19 09:00N 48°36' W 122°33'0 0.0
2017-Sep-19 08:30N 48°36' W 122°33'0 0.0
2017-Sep-19 07:03N 48°36' W 122°33'0 0.0
2017-Sep-19 06:51N 48°36' W 122°33'0 0.1
2017-Sep-19 06:24N 48°36' W 122°33'0 0.0
2017-Sep-19 05:54N 48°36' W 122°33'0 0.0
2017-Sep-19 05:30N 48°36' W 122°33'0 0.0
2017-Sep-19 03:42N 48°36' W 122°33'0 0.0
2017-Sep-19 03:30N 48°36' W 122°33'0 0.0
2017-Sep-18 20:21N 48°36' W 122°32'0 0.0
2017-Sep-18 19:48N 48°36' W 122°32'0 0.1
2017-Sep-18 19:15N 48°36' W 122°33'0 0.0
2017-Sep-18 14:00N 48°36' W 122°33'0 0.0
2017-Sep-18 12:54N 48°36' W 122°33'0 0.0
2017-Sep-18 10:24N 48°36' W 122°33'0 0.3
2017-Sep-18 09:59N 48°36' W 122°33'2 5.1
2017-Sep-18 09:30N 48°37' W 122°36'5 9.2
2017-Sep-18 09:00N 48°33' W 122°40'714.1
2017-Sep-18 08:29N 48°27' W 122°46'714.4
2017-Sep-18 08:00N 48°22' W 122°53'815.4
2017-Sep-18 07:30N 48°18' W 123°03'714.3
2017-Sep-18 06:59N 48°14' W 123°12'714.1
2017-Sep-18 06:30N 48°11' W 123°21'5 9.6
2017-Sep-18 06:00N 48°11' W 123°28'612.2
2017-Sep-18 05:30N 48°13' W 123°37'612.5
2017-Sep-18 05:00N 48°13' W 123°46'713.5
2017-Sep-18 04:30N 48°14' W 123°56'713.8
2017-Sep-18 04:00N 48°17' W 124°05'713.7
2017-Sep-18 03:30N 48°19' W 124°15'713.5
2017-Sep-18 03:00N 48°22' W 124°24'713.6
2017-Sep-18 02:31N 48°25' W 124°33'713.6
2017-Sep-18 02:00N 48°28' W 124°42'713.8
2017-Sep-18 01:30N 48°29' W 124°53'612.4
2017-Sep-18 01:00N 48°26' W 125°02'713.8
2017-Sep-18 00:30N 48°20' W 125°06'713.6
2017-Sep-18 00:00N 48°14' W 125°12'713.7
2017-Sep-17 23:29N 48°09' W 125°19'713.7
2017-Sep-17 22:57N 48°03' W 125°26'  

Dump ship's entire track history